.
WxDataArchive / Data Records for 2011-09-15
2011-09-14 September 2011 2011-09-16

Data Records for Thursday, 15 September 2011

Time	Temp	Chill	HIndex	Humid	Dewpt	 Wind 	HiWind	WindDir	Rain 	Barom 
-----	----	-----	------	-----	-----	------	------	-------	-----	----- 
00:00	50.2	50.2	50.2	85	45.9	0	1	315	0.00	30.103 
00:05	50.2	50.2	50.2	84	45.6	1	5	0	0.00	30.103 
00:10	50.2	50.2	50.2	83	45.2	1	4	270	0.00	30.103 
00:15	50.1	50.1	50.1	83	45.1	1	3	270	0.00	30.103 
00:20	50.1	50.1	50.1	81	44.5	1	6	315	0.00	30.103 
00:25	50.1	50.1	50.1	81	44.5	0	4	270	0.00	30.103 
00:30	50.1	50.1	50.1	81	44.5	0	5	292	0.00	30.104 
00:35	49.9	49.9	49.9	80	44.0	1	3	292	0.00	30.104 
00:40	49.9	49.9	49.9	79	43.6	0	2	292	0.00	30.104 
00:45	49.9	49.9	49.9	79	43.6	1	3	292	0.00	30.108 
00:50	49.9	49.9	49.9	77	43.0	1	7	292	0.00	30.108 
00:55	49.9	49.9	49.9	77	43.0	0	3	292	0.00	30.108 
01:00	49.9	49.9	49.9	76	42.6	0	3	292	0.00	30.113 
01:05	49.8	49.8	49.8	76	42.5	0	2	315	0.00	30.113 
01:10	49.8	49.8	49.8	76	42.5	0	3	315	0.00	30.113 
01:15	49.8	49.8	49.8	76	42.5	0	4	292	0.00	30.115 
01:20	49.6	49.6	49.6	76	42.3	0	3	338	0.00	30.115 
01:25	49.6	49.6	49.6	76	42.3	0	2	338	0.00	30.115 
01:30	49.6	49.6	49.6	75	42.0	0	1	338	0.00	30.113 
01:35	49.6	49.6	49.6	75	42.0	0	2	292	0.00	30.113 
01:40	49.6	49.6	49.6	75	42.0	0	1	315	0.00	30.113 
01:45	49.6	49.6	49.6	74	41.7	0	1	315	0.00	30.115 
01:50	49.6	49.6	49.6	74	41.7	0	2	315	0.00	30.115 
01:55	49.6	49.6	49.6	74	41.7	0	2	315	0.00	30.115 
02:00	49.6	49.6	49.6	74	41.7	0	1	315	0.00	30.117 
02:05	49.5	49.5	49.5	73	41.2	0	2	315	0.00	30.117 
02:10	49.5	49.5	49.5	73	41.2	0	3	315	0.00	30.117 
02:15	49.5	49.5	49.5	73	41.2	0	1	315	0.00	30.118 
02:20	49.5	49.5	49.5	73	41.2	0	0	---	0.00	30.118 
02:25	49.4	49.4	49.4	72	40.8	0	3	315	0.00	30.118 
02:30	49.4	49.4	49.4	73	41.1	0	2	315	0.00	30.117 
02:35	49.4	49.4	49.4	73	41.1	0	0	---	0.00	30.117 
02:40	49.2	49.2	49.2	72	40.6	0	0	---	0.00	30.117 
02:45	49.2	49.2	49.2	72	40.6	0	3	315	0.00	30.117 
02:50	49.2	49.2	49.2	72	40.6	0	2	135	0.00	30.117 
02:55	49.1	49.1	49.1	73	40.8	0	0	---	0.00	30.117 
03:00	48.8	48.8	48.8	73	40.5	0	0	---	0.00	30.116 
03:05	48.6	48.6	48.6	73	40.3	0	2	292	0.00	30.116 
03:10	48.3	48.3	48.3	73	40.1	0	1	292	0.00	30.116 
03:15	48.2	48.2	48.2	72	39.6	0	0	---	0.00	30.115 
03:20	48.0	48.0	48.0	73	39.8	0	0	---	0.00	30.115 
03:25	47.7	47.7	47.7	74	39.8	0	0	---	0.00	30.115 
03:30	47.4	47.4	47.4	74	39.5	0	0	---	0.00	30.116 
03:35	47.1	47.1	47.1	75	39.6	0	0	---	0.00	30.116 
03:40	46.8	46.8	46.8	75	39.3	0	0	---	0.00	30.116 
03:45	46.7	46.7	46.7	76	39.5	0	0	---	0.00	30.122 
03:50	46.4	46.4	46.4	76	39.3	0	0	---	0.00	30.122 
03:55	46.1	46.1	46.1	77	39.3	0	0	---	0.00	30.122 
04:00	45.8	45.8	45.8	78	39.3	0	0	---	0.00	30.126 
04:05	45.7	45.7	45.7	78	39.2	0	0	---	0.00	30.126 
04:10	45.4	45.4	45.4	79	39.3	0	0	---	0.00	30.126 
04:15	45.1	45.1	45.1	80	39.3	0	0	---	0.00	30.137 
04:20	44.9	44.9	44.9	81	39.4	0	0	---	0.00	30.137 
04:25	44.8	44.8	44.8	82	39.6	0	0	---	0.00	30.137 
04:30	44.5	44.5	44.5	83	39.7	0	0	---	0.00	30.141 
04:35	44.2	44.2	44.2	84	39.7	0	0	---	0.00	30.141 
04:40	44.1	44.1	44.1	84	39.6	0	0	---	0.00	30.141 
04:45	43.9	43.9	43.9	85	39.7	0	0	---	0.00	30.146 
04:50	43.6	43.6	43.6	85	39.4	0	0	---	0.00	30.146 
04:55	43.5	43.5	43.5	85	39.3	0	0	---	0.00	30.146 
05:00	43.3	43.3	43.3	86	39.4	0	0	---	0.00	30.150 
05:05	43.2	43.2	43.2	87	39.6	0	0	---	0.00	30.150 
05:10	43.1	43.1	43.1	87	39.5	0	0	---	0.00	30.150 
05:15	42.9	42.9	42.9	87	39.3	0	0	---	0.00	30.154 
05:20	42.8	42.8	42.8	88	39.5	0	1	292	0.00	30.154 
05:25	42.8	42.8	42.8	88	39.5	0	0	---	0.00	30.154 
05:30	42.8	42.8	42.8	88	39.5	0	0	---	0.00	30.155 
05:35	42.6	42.6	42.6	87	39.0	0	0	---	0.00	30.155 
05:40	42.6	42.6	42.6	87	39.0	0	0	---	0.00	30.155 
05:45	42.5	42.5	42.5	87	38.9	0	0	---	0.00	30.161 
05:50	42.3	42.3	42.3	87	38.7	0	0	---	0.00	30.161 
05:55	42.2	42.2	42.2	87	38.6	0	0	---	0.00	30.161 
06:00	41.9	41.9	41.9	87	38.3	0	0	---	0.00	30.168 
06:05	41.8	41.8	41.8	87	38.2	0	0	---	0.00	30.168 
06:10	41.6	41.6	41.6	88	38.3	0	0	---	0.00	30.168 
06:15	41.5	41.5	41.5	88	38.2	0	0	---	0.00	30.178 
06:20	41.5	41.5	41.5	88	38.2	0	0	---	0.00	30.178 
06:25	41.3	41.3	41.3	88	38.0	0	0	---	0.00	30.178 
06:30	41.3	41.3	41.3	88	38.0	0	0	---	0.00	30.182 
06:35	41.2	41.2	41.2	88	37.9	0	0	---	0.00	30.182 
06:40	41.2	41.2	41.2	88	37.9	0	0	---	0.00	30.182 
06:45	41.1	41.1	41.1	89	38.1	0	0	---	0.00	30.189 
06:50	40.9	40.9	40.9	89	37.9	0	0	---	0.00	30.189 
06:55	40.9	40.9	40.9	89	37.9	0	0	---	0.00	30.189 
07:00	40.8	40.8	40.8	89	37.8	0	0	---	0.00	30.198 
07:05	40.8	40.8	40.8	89	37.8	0	1	292	0.00	30.198 
07:10	40.8	40.8	40.8	89	37.8	0	0	---	0.00	30.198 
07:15	40.8	40.8	40.8	90	38.1	0	0	---	0.00	30.208 
07:20	40.8	40.8	40.8	90	38.1	0	0	---	0.00	30.208 
07:25	40.9	40.9	40.9	90	38.2	0	2	292	0.00	30.208 
07:30	41.1	41.1	41.1	90	38.4	0	1	292	0.00	30.214 
07:35	41.1	41.1	41.1	89	38.1	0	1	292	0.00	30.214 
07:40	41.2	41.2	41.2	89	38.2	0	1	292	0.00	30.214 
07:45	41.3	41.3	41.3	89	38.3	0	1	292	0.00	30.222 
07:50	41.6	41.6	41.6	88	38.3	0	0	---	0.00	30.222 
07:55	41.8	41.8	41.8	88	38.5	0	2	135	0.00	30.222 
08:00	42.1	42.1	42.1	88	38.8	0	1	22	0.00	30.230 
08:05	42.3	42.3	42.3	87	38.7	0	1	22	0.00	30.230 
08:10	42.6	42.6	42.6	86	38.7	0	1	22	0.00	30.230 
08:15	42.9	42.9	42.9	85	38.7	0	0	---	0.00	30.235 
08:20	43.1	43.1	43.1	85	38.9	0	1	22	0.00	30.235 
08:25	43.5	43.5	43.5	84	39.0	0	1	22	0.00	30.235 
08:30	43.8	43.8	43.8	84	39.3	0	3	292	0.00	30.244 
08:35	44.2	44.2	44.2	83	39.4	0	2	292	0.00	30.244 
08:40	44.5	44.5	44.5	82	39.4	0	2	292	0.00	30.244 
08:45	44.9	44.9	44.9	81	39.4	0	2	292	0.00	30.251 
08:50	45.2	45.2	45.2	80	39.4	0	1	202	0.00	30.251 
08:55	45.7	45.7	45.7	79	39.6	0	6	45	0.00	30.251 
09:00	46.0	46.0	46.0	77	39.2	0	3	22	0.00	30.256 
09:05	46.2	46.2	46.2	76	39.1	0	3	292	0.00	30.256 
09:10	46.7	46.7	46.7	76	39.5	1	13	135	0.00	30.256 
09:15	46.8	46.8	46.8	74	39.0	1	13	90	0.00	30.260 
09:20	47.1	47.1	47.1	74	39.2	0	4	112	0.00	30.260 
09:25	47.4	47.4	47.4	74	39.5	0	2	158	0.00	30.260 
09:30	47.7	47.7	47.7	74	39.8	0	1	158	0.00	30.262 
09:35	48.0	48.0	48.0	74	40.1	0	4	112	0.00	30.262 
09:40	48.3	48.3	48.3	72	39.7	0	4	90	0.00	30.262 
09:45	48.6	48.6	48.6	70	39.3	1	9	158	0.00	30.265 
09:50	48.8	48.8	48.8	70	39.5	1	4	135	0.00	30.265 
09:55	49.2	49.2	49.2	70	39.8	1	3	135	0.00	30.265 
10:00	49.6	49.6	49.6	69	39.9	1	4	270	0.00	30.268 
10:05	50.4	50.4	50.4	67	39.9	1	3	270	0.00	30.268 
10:10	51.1	51.1	51.1	66	40.1	1	4	112	0.00	30.268 
10:15	51.6	51.6	51.6	63	39.4	1	5	270	0.00	30.269 
10:20	52.2	52.2	52.2	63	40.0	1	7	112	0.00	30.269 
10:25	52.9	52.9	52.9	62	40.2	1	4	90	0.00	30.269 
10:30	53.5	53.5	53.5	59	39.5	1	6	135	0.00	30.270 
10:35	53.9	53.9	53.9	58	39.5	2	5	135	0.00	30.270 
10:40	54.2	54.2	54.2	56	38.8	1	5	112	0.00	30.270 
10:45	54.5	54.5	54.5	57	39.6	1	4	90	0.00	30.274 
10:50	54.5	54.5	54.5	57	39.6	1	5	90	0.00	30.274 
10:55	54.8	54.8	54.8	55	38.9	1	4	90	0.00	30.274 
11:00	55.3	55.3	55.3	56	39.9	1	5	112	0.00	30.284 
11:05	55.6	55.6	55.6	56	40.2	1	5	112	0.00	30.284 
11:10	55.3	55.3	55.3	50	37.0	2	9	338	0.00	30.284 
11:15	54.8	54.8	54.8	49	36.0	2	5	338	0.00	30.292 
11:20	54.7	54.7	54.7	48	35.4	1	5	270	0.00	30.292 
11:25	54.8	54.8	54.8	46	34.4	1	4	22	0.00	30.292 
11:30	55.1	55.1	55.1	44	33.6	2	6	270	0.00	30.296 
11:35	55.6	55.6	55.6	47	35.7	2	6	68	0.00	30.296 
11:40	56.0	56.0	56.0	46	35.5	2	9	45	0.00	30.296 
11:45	56.3	56.3	56.3	46	35.8	1	7	112	0.00	30.294 
11:50	56.5	56.5	56.5	44	34.9	2	7	90	0.00	30.294 
11:55	56.7	56.7	56.7	48	37.2	2	6	90	0.00	30.294 
12:00	56.7	56.7	56.7	46	36.2	1	4	202	0.00	30.297 
12:05	57.0	57.0	57.0	46	36.4	2	7	90	0.00	30.297 
12:10	57.5	57.5	57.5	48	38.0	1	5	90	0.00	30.297 
12:15	57.8	57.8	57.8	45	36.6	1	5	270	0.00	30.295 
12:20	57.6	57.6	57.6	45	36.4	2	4	315	0.00	30.295 
12:25	56.5	56.5	56.5	41	33.1	2	5	338	0.00	30.295 
12:30	56.6	56.6	56.6	46	36.1	1	5	292	0.00	30.299 
12:35	56.9	56.9	56.9	41	33.4	2	10	112	0.00	30.299 
12:40	57.2	57.2	57.2	44	35.5	1	2	338	0.00	30.299 
12:45	57.8	57.8	57.8	40	33.6	1	6	315	0.00	30.298 
12:50	57.8	57.8	57.8	43	35.5	2	4	270	0.00	30.298 
12:55	57.8	57.8	57.8	42	34.9	1	6	292	0.00	30.298 
13:00	58.1	58.1	58.1	42	35.1	2	5	90	0.00	30.297 
13:05	58.4	58.4	58.4	45	37.1	1	5	112	0.00	30.297 
13:10	58.7	58.7	58.7	42	35.7	1	3	270	0.00	30.297 
13:15	58.6	58.6	58.6	43	36.2	2	7	90	0.00	30.297 
13:20	58.7	58.7	58.7	44	36.8	2	6	90	0.00	30.297 
13:25	58.9	58.9	58.9	41	35.2	1	3	112	0.00	30.297 
13:30	59.2	59.2	59.2	41	35.5	1	4	270	0.00	30.298 
13:35	59.2	59.2	59.2	38	33.6	1	4	270	0.00	30.298 
13:40	58.9	58.9	58.9	39	34.0	0	5	112	0.00	30.298 
13:45	59.2	59.2	59.2	40	34.9	1	3	112	0.00	30.299 
13:50	59.3	59.3	59.3	42	36.2	1	7	270	0.00	30.299 
13:55	59.6	59.6	59.6	40	35.3	0	3	135	0.00	30.299 
14:00	59.8	59.8	59.8	38	34.1	2	5	270	0.00	30.297 
14:05	59.5	59.5	59.5	39	34.5	1	4	270	0.00	30.297 
14:10	59.5	59.5	59.5	41	35.8	1	3	68	0.00	30.297 
14:15	59.6	59.6	59.6	35	31.9	1	5	315	0.00	30.298 
14:20	59.6	59.6	59.6	39	34.6	1	3	90	0.00	30.298 
14:25	59.9	59.9	59.9	36	32.9	1	4	68	0.00	30.298 
14:30	60.2	60.2	60.2	41	36.4	2	6	112	0.00	30.295 
14:35	60.1	60.1	60.1	37	33.7	1	5	68	0.00	30.295 
14:40	60.1	60.1	60.1	40	35.7	1	4	270	0.00	30.295 
14:45	60.2	60.2	60.2	37	33.8	1	5	112	0.00	30.297 
14:50	59.6	59.6	59.6	39	34.6	1	3	90	0.00	30.297 
14:55	59.5	59.5	59.5	35	31.8	1	5	112	0.00	30.297 
15:00	60.1	60.1	60.1	38	34.4	0	3	112	0.00	30.297 
15:05	60.5	60.5	60.5	35	32.7	1	4	112	0.00	30.297 
15:10	60.5	60.5	60.5	35	32.7	1	3	90	0.00	30.297 
15:15	60.7	60.7	60.7	36	33.6	0	3	68	0.00	30.298 
15:20	60.4	60.4	60.4	33	31.2	1	4	292	0.00	30.298 
15:25	60.2	60.2	60.2	35	32.4	1	4	112	0.00	30.298 
15:30	60.2	60.2	60.2	34	31.7	1	6	112	0.00	30.295 
15:35	60.4	60.4	60.4	35	32.6	1	5	90	0.00	30.295 
15:40	60.2	60.2	60.2	34	31.7	1	5	135	0.00	30.295 
15:45	60.2	60.2	60.2	32	30.2	1	4	68	0.00	30.292 
15:50	60.2	60.2	60.2	33	31.0	1	2	68	0.00	30.292 
15:55	60.1	60.1	60.1	34	31.6	1	3	22	0.00	30.292 
16:00	60.2	60.2	60.2	36	33.1	1	4	112	0.00	30.297 
16:05	60.5	60.5	60.5	36	33.4	1	3	112	0.00	30.297 
16:10	60.5	60.5	60.5	36	33.4	1	3	292	0.00	30.297 
16:15	60.1	60.1	60.1	35	32.4	1	4	292	0.00	30.303 
16:20	59.6	59.6	59.6	35	31.9	1	3	315	0.00	30.303 
16:25	59.6	59.6	59.6	35	31.9	1	5	135	0.00	30.303 
16:30	59.6	59.6	59.6	34	31.2	1	5	112	0.00	30.298 
16:35	59.6	59.6	59.6	38	34.0	0	2	112	0.00	30.298 
16:40	59.8	59.8	59.8	36	32.8	1	4	112	0.00	30.298 
16:45	59.6	59.6	59.6	36	32.6	1	4	158	0.00	30.297 
16:50	59.8	59.8	59.8	37	33.5	0	3	270	0.00	30.297 
16:55	59.8	59.8	59.8	35	32.1	1	4	270	0.00	30.297 
17:00	59.8	59.8	59.8	35	32.1	1	4	270	0.00	30.296 
17:05	59.8	59.8	59.8	38	34.1	0	3	135	0.00	30.296 
17:10	59.8	59.8	59.8	35	32.1	1	4	90	0.00	30.296 
17:15	59.8	59.8	59.8	35	32.1	1	3	270	0.00	30.302 
17:20	59.6	59.6	59.6	36	32.6	1	3	270	0.00	30.302 
17:25	59.6	59.6	59.6	37	33.3	1	3	315	0.00	30.302 
17:30	59.6	59.6	59.6	36	32.6	0	2	292	0.00	30.305 
17:35	59.5	59.5	59.5	38	33.9	1	3	112	0.00	30.305 
17:40	59.5	59.5	59.5	37	33.2	0	3	90	0.00	30.305 
17:45	59.3	59.3	59.3	36	32.4	0	2	90	0.00	30.316 
17:50	59.2	59.2	59.2	35	31.6	1	3	292	0.00	30.316 
17:55	59.2	59.2	59.2	37	32.9	0	3	292	0.00	30.316 
18:00	59.2	59.2	59.2	36	32.3	1	3	45	0.00	30.312 
18:05	58.9	58.9	58.9	37	32.7	1	2	112	0.00	30.312 
18:10	58.7	58.7	58.7	38	33.2	0	2	112	0.00	30.312 
18:15	58.6	58.6	58.6	38	33.1	0	2	112	0.00	30.314 
18:20	58.9	58.9	58.9	41	35.2	0	2	112	0.00	30.314 
18:25	58.9	58.9	58.9	40	34.6	0	2	270	0.00	30.314 
18:30	58.6	58.6	58.6	38	33.1	0	1	270	0.00	30.318 
18:35	58.4	58.4	58.4	39	33.5	0	0	---	0.00	30.318 
18:40	58.1	58.1	58.1	39	33.3	0	2	270	0.00	30.318 
18:45	58.0	58.0	58.0	41	34.4	1	3	270	0.00	30.320 
18:50	57.6	57.6	57.6	41	34.1	0	2	68	0.00	30.320 
18:55	57.5	57.5	57.5	41	34.0	0	1	68	0.00	30.320 
19:00	57.3	57.3	57.3	41	33.8	0	2	68	0.00	30.322 
19:05	57.3	57.3	57.3	43	35.0	0	3	68	0.00	30.322 
19:10	57.0	57.0	57.0	42	34.1	0	1	68	0.00	30.322 
19:15	56.9	56.9	56.9	42	34.0	0	0	---	0.00	30.322 
19:20	56.6	56.6	56.6	43	34.4	0	0	---	0.00	30.322 
19:25	56.5	56.5	56.5	43	34.3	0	0	---	0.00	30.322 
19:30	56.3	56.3	56.3	45	35.2	0	0	---	0.00	30.321 
19:35	56.0	56.0	56.0	46	35.5	0	0	---	0.00	30.321 
19:40	55.7	55.7	55.7	46	35.2	0	0	---	0.00	30.321 
19:45	55.3	55.3	55.3	47	35.4	0	0	---	0.00	30.320 
19:50	55.0	55.0	55.0	47	35.1	0	0	---	0.00	30.320 
19:55	54.5	54.5	54.5	48	35.2	0	0	---	0.00	30.320 
20:00	54.2	54.2	54.2	50	36.0	0	0	---	0.00	30.322 
20:05	53.6	53.6	53.6	50	35.4	0	0	---	0.00	30.322 
20:10	53.2	53.2	53.2	52	36.0	0	0	---	0.00	30.322 
20:15	52.9	52.9	52.9	52	35.8	0	0	---	0.00	30.322 
20:20	52.5	52.5	52.5	53	35.9	0	0	---	0.00	30.322 
20:25	52.0	52.0	52.0	54	35.9	0	0	---	0.00	30.322 
20:30	51.6	51.6	51.6	57	36.9	0	0	---	0.00	30.323 
20:35	51.1	51.1	51.1	59	37.3	0	0	---	0.00	30.323 
20:40	50.7	50.7	50.7	60	37.3	0	0	---	0.00	30.323 
20:45	50.2	50.2	50.2	61	37.3	0	0	---	0.00	30.328 
20:50	49.9	49.9	49.9	62	37.4	0	0	---	0.00	30.328 
20:55	49.6	49.6	49.6	62	37.1	0	0	---	0.00	30.328 
21:00	49.2	49.2	49.2	64	37.5	0	0	---	0.00	30.328 
21:05	48.9	48.9	48.9	65	37.7	0	0	---	0.00	30.328 
21:10	48.6	48.6	48.6	66	37.8	0	0	---	0.00	30.328 
21:15	48.3	48.3	48.3	68	38.2	0	0	---	0.00	30.333 
21:20	48.0	48.0	48.0	69	38.3	0	0	---	0.00	30.333 
21:25	47.9	47.9	47.9	70	38.6	0	0	---	0.00	30.333 
21:30	47.6	47.6	47.6	70	38.3	0	0	---	0.00	30.336 
21:35	47.4	47.4	47.4	71	38.5	0	0	---	0.00	30.336 
21:40	47.1	47.1	47.1	72	38.5	0	0	---	0.00	30.336 
21:45	46.8	46.8	46.8	73	38.6	0	0	---	0.00	30.339 
21:50	46.7	46.7	46.7	74	38.9	0	0	---	0.00	30.339 
21:55	46.4	46.4	46.4	75	38.9	0	0	---	0.00	30.339 
22:00	46.1	46.1	46.1	76	39.0	0	0	---	0.00	30.336 
22:05	46.0	46.0	46.0	77	39.2	0	0	---	0.00	30.336 
22:10	45.8	45.8	45.8	77	39.0	0	0	---	0.00	30.336 
22:15	45.5	45.5	45.5	77	38.7	0	0	---	0.00	30.334 
22:20	45.4	45.4	45.4	77	38.6	0	0	---	0.00	30.334 
22:25	45.2	45.2	45.2	78	38.8	0	0	---	0.00	30.334 
22:30	44.9	44.9	44.9	79	38.8	0	0	---	0.00	30.335 
22:35	44.8	44.8	44.8	79	38.7	0	0	---	0.00	30.335 
22:40	44.6	44.6	44.6	80	38.8	0	0	---	0.00	30.335 
22:45	44.5	44.5	44.5	80	38.7	0	0	---	0.00	30.336 
22:50	44.3	44.3	44.3	81	38.8	0	0	---	0.00	30.336 
22:55	44.2	44.2	44.2	81	38.7	0	0	---	0.00	30.336 
23:00	44.1	44.1	44.1	82	39.0	0	0	---	0.00	30.335 
23:05	43.8	43.8	43.8	82	38.7	0	0	---	0.00	30.335 
23:10	43.8	43.8	43.8	82	38.7	0	0	---	0.00	30.335 
23:15	43.6	43.6	43.6	83	38.8	0	0	---	0.00	30.333 
23:20	43.5	43.5	43.5	83	38.7	0	0	---	0.00	30.333 
23:25	43.2	43.2	43.2	83	38.4	0	0	---	0.00	30.333 
23:30	43.1	43.1	43.1	84	38.6	0	0	---	0.00	30.338 
23:35	42.9	42.9	42.9	84	38.4	0	0	---	0.00	30.338 
23:40	42.9	42.9	42.9	84	38.4	0	0	---	0.00	30.338 
23:45	42.8	42.8	42.8	85	38.6	0	0	---	0.00	30.339 
23:50	42.6	42.6	42.6	85	38.4	0	0	---	0.00	30.339 
23:55	42.6	42.6	42.6	85	38.4	0	1	68	0.00	30.339 

CoCoRaHS
IN-AL-39
A2 Web Hosting
Creative Commons License
GoDaddy
search engine by freefind advanced

loaded 2018-11-19 18:56:44 • last modified 2010-11-18 10:43:29
Privacy PolicyDisclaimer
• wx.awcolley.com is powered by PmWiki v.2002016 •
• all content (unless otherwise noted) © 2018 A W Colley